sensor_id;sensor_type;location;lat;lon;timestamp;temperature;humidity
67557;DHT22;54387;53.526;49.300;2023-03-14T00:01:58;-1.40;60.70
67557;DHT22;54387;53.526;49.300;2023-03-14T00:04:24;-1.40;60.80
67557;DHT22;54387;53.526;49.300;2023-03-14T00:06:50;-1.40;60.80
67557;DHT22;54387;53.526;49.300;2023-03-14T00:09:17;-1.40;60.80
67557;DHT22;54387;53.526;49.300;2023-03-14T00:11:43;-1.40;60.80
67557;DHT22;54387;53.526;49.300;2023-03-14T00:14:09;-1.40;60.80
67557;DHT22;54387;53.526;49.300;2023-03-14T00:16:37;-1.40;60.70
67557;DHT22;54387;53.526;49.300;2023-03-14T00:19:03;-1.30;60.80
67557;DHT22;54387;53.526;49.300;2023-03-14T00:21:30;-1.40;60.70
67557;DHT22;54387;53.526;49.300;2023-03-14T00:23:56;-1.40;60.70
67557;DHT22;54387;53.526;49.300;2023-03-14T00:26:22;-1.40;60.80
67557;DHT22;54387;53.526;49.300;2023-03-14T00:28:52;-1.40;60.80
67557;DHT22;54387;53.526;49.300;2023-03-14T00:31:19;-1.40;60.80
67557;DHT22;54387;53.526;49.300;2023-03-14T00:33:45;-1.50;60.80
67557;DHT22;54387;53.526;49.300;2023-03-14T00:36:12;-1.50;60.80
67557;DHT22;54387;53.526;49.300;2023-03-14T00:38:39;-1.50;60.90
67557;DHT22;54387;53.526;49.300;2023-03-14T00:41:07;-1.50;60.90
67557;DHT22;54387;53.526;49.300;2023-03-14T00:43:33;-1.50;60.90
67557;DHT22;54387;53.526;49.300;2023-03-14T00:45:59;-1.60;60.80
67557;DHT22;54387;53.526;49.300;2023-03-14T00:48:25;-1.60;60.70
67557;DHT22;54387;53.526;49.300;2023-03-14T00:50:52;-1.60;60.70
67557;DHT22;54387;53.526;49.300;2023-03-14T00:53:18;-1.60;60.70
67557;DHT22;54387;53.526;49.300;2023-03-14T00:55:44;-1.60;60.70
67557;DHT22;54387;53.526;49.300;2023-03-14T00:58:11;-1.60;60.70
67557;DHT22;54387;53.526;49.300;2023-03-14T01:00:37;-1.60;60.60
67557;DHT22;54387;53.526;49.300;2023-03-14T01:03:03;-1.60;60.60
67557;DHT22;54387;53.526;49.300;2023-03-14T01:05:29;-1.60;60.50
67557;DHT22;54387;53.526;49.300;2023-03-14T01:07:55;-1.60;61.00
67557;DHT22;54387;53.526;49.300;2023-03-14T01:10:22;-1.60;60.50
67557;DHT22;54387;53.526;49.300;2023-03-14T01:12:48;-1.60;60.40
67557;DHT22;54387;53.526;49.300;2023-03-14T01:15:14;-1.60;60.50
67557;DHT22;54387;53.526;49.300;2023-03-14T01:17:40;-1.60;60.50
67557;DHT22;54387;53.526;49.300;2023-03-14T01:20:07;-1.60;60.50
67557;DHT22;54387;53.526;49.300;2023-03-14T01:22:37;-1.60;60.50
67557;DHT22;54387;53.526;49.300;2023-03-14T01:25:15;-1.60;60.50
67557;DHT22;54387;53.526;49.300;2023-03-14T01:27:41;-1.70;60.50
67557;DHT22;54387;53.526;49.300;2023-03-14T01:30:07;-1.60;60.50
67557;DHT22;54387;53.526;49.300;2023-03-14T01:32:34;-1.50;60.40
67557;DHT22;54387;53.526;49.300;2023-03-14T01:35:00;-1.50;60.10
67557;DHT22;54387;53.526;49.300;2023-03-14T01:37:26;-1.40;60.00
67557;DHT22;54387;53.526;49.300;2023-03-14T01:39:52;-1.40;60.00
67557;DHT22;54387;53.526;49.300;2023-03-14T01:42:18;-1.40;60.00
67557;DHT22;54387;53.526;49.300;2023-03-14T01:44:48;-1.40;59.90
67557;DHT22;54387;53.526;49.300;2023-03-14T01:47:14;-1.40;59.70
67557;DHT22;54387;53.526;49.300;2023-03-14T01:49:40;-1.40;59.60
67557;DHT22;54387;53.526;49.300;2023-03-14T01:52:07;-1.40;59.60
67557;DHT22;54387;53.526;49.300;2023-03-14T01:54:46;-1.40;59.50
67557;DHT22;54387;53.526;49.300;2023-03-14T01:57:15;-1.40;59.50
67557;DHT22;54387;53.526;49.300;2023-03-14T01:59:43;-1.50;59.50
67557;DHT22;54387;53.526;49.300;2023-03-14T02:02:11;-1.50;59.60
67557;DHT22;54387;53.526;49.300;2023-03-14T02:04:38;-1.60;59.50
67557;DHT22;54387;53.526;49.300;2023-03-14T02:09:33;-1.60;59.60
67557;DHT22;54387;53.526;49.300;2023-03-14T02:12:00;-1.60;59.60
67557;DHT22;54387;53.526;49.300;2023-03-14T02:14:30;-1.60;59.70
67557;DHT22;54387;53.526;49.300;2023-03-14T02:16:57;-1.60;59.60
67557;DHT22;54387;53.526;49.300;2023-03-14T02:19:26;-1.60;59.60
67557;DHT22;54387;53.526;49.300;2023-03-14T02:21:59;-1.60;59.60
67557;DHT22;54387;53.526;49.300;2023-03-14T02:24:46;-1.60;59.60
67557;DHT22;54387;53.526;49.300;2023-03-14T02:27:16;-1.60;59.70
67557;DHT22;54387;53.526;49.300;2023-03-14T02:29:53;-1.60;59.70
67557;DHT22;54387;53.526;49.300;2023-03-14T02:32:22;-1.70;59.70
67557;DHT22;54387;53.526;49.300;2023-03-14T02:34:50;-1.70;59.70
67557;DHT22;54387;53.526;49.300;2023-03-14T02:37:18;-1.70;59.70
67557;DHT22;54387;53.526;49.300;2023-03-14T02:39:45;-1.70;59.70
67557;DHT22;54387;53.526;49.300;2023-03-14T02:42:12;-1.70;59.70
67557;DHT22;54387;53.526;49.300;2023-03-14T02:44:52;-1.70;59.80
67557;DHT22;54387;53.526;49.300;2023-03-14T02:47:20;-1.70;59.90
67557;DHT22;54387;53.526;49.300;2023-03-14T02:49:47;-1.60;60.00
67557;DHT22;54387;53.526;49.300;2023-03-14T02:52:13;-1.50;60.00
67557;DHT22;54387;53.526;49.300;2023-03-14T02:54:39;-1.40;60.00
67557;DHT22;54387;53.526;49.300;2023-03-14T02:57:05;-1.30;60.10
67557;DHT22;54387;53.526;49.300;2023-03-14T02:59:31;-1.20;60.10
67557;DHT22;54387;53.526;49.300;2023-03-14T03:01:59;-1.10;59.90
67557;DHT22;54387;53.526;49.300;2023-03-14T03:04:25;-1.00;59.80
67557;DHT22;54387;53.526;49.300;2023-03-14T03:06:51;-0.90;59.70
67557;DHT22;54387;53.526;49.300;2023-03-14T03:09:17;-0.90;59.60
67557;DHT22;54387;53.526;49.300;2023-03-14T03:11:43;-0.80;59.60
67557;DHT22;54387;53.526;49.300;2023-03-14T03:14:09;-0.90;59.30
67557;DHT22;54387;53.526;49.300;2023-03-14T03:16:35;-0.80;59.00
67557;DHT22;54387;53.526;49.300;2023-03-14T03:19:01;-0.90;59.00
67557;DHT22;54387;53.526;49.300;2023-03-14T03:21:27;-0.90;58.90
67557;DHT22;54387;53.526;49.300;2023-03-14T03:23:53;-0.90;58.80
67557;DHT22;54387;53.526;49.300;2023-03-14T03:26:19;-1.00;59.00
67557;DHT22;54387;53.526;49.300;2023-03-14T03:28:45;-1.00;58.90
67557;DHT22;54387;53.526;49.300;2023-03-14T03:31:11;-1.00;58.90
67557;DHT22;54387;53.526;49.300;2023-03-14T03:33:37;-1.00;59.10
67557;DHT22;54387;53.526;49.300;2023-03-14T03:36:04;-0.90;59.10
67557;DHT22;54387;53.526;49.300;2023-03-14T03:38:30;-0.90;59.00
67557;DHT22;54387;53.526;49.300;2023-03-14T03:40:56;-0.80;58.90
67557;DHT22;54387;53.526;49.300;2023-03-14T03:43:22;-0.80;58.80
67557;DHT22;54387;53.526;49.300;2023-03-14T03:45:48;-0.80;58.50
67557;DHT22;54387;53.526;49.300;2023-03-14T03:48:14;-0.90;58.20
67557;DHT22;54387;53.526;49.300;2023-03-14T03:50:44;-1.00;58.20
67557;DHT22;54387;53.526;49.300;2023-03-14T03:53:10;-1.00;58.40
67557;DHT22;54387;53.526;49.300;2023-03-14T03:55:36;-1.10;58.50
67557;DHT22;54387;53.526;49.300;2023-03-14T03:58:02;-1.10;58.50
67557;DHT22;54387;53.526;49.300;2023-03-14T04:00:28;-1.20;58.50
67557;DHT22;54387;53.526;49.300;2023-03-14T04:02:54;-1.20;58.60
67557;DHT22;54387;53.526;49.300;2023-03-14T04:05:20;-1.20;58.80
67557;DHT22;54387;53.526;49.300;2023-03-14T04:07:46;-1.20;58.80
67557;DHT22;54387;53.526;49.300;2023-03-14T04:10:12;-1.30;58.80
67557;DHT22;54387;53.526;49.300;2023-03-14T04:12:38;-1.30;59.00
67557;DHT22;54387;53.526;49.300;2023-03-14T04:15:05;-1.30;59.20
67557;DHT22;54387;53.526;49.300;2023-03-14T04:17:31;-1.20;59.30
67557;DHT22;54387;53.526;49.300;2023-03-14T04:19:57;-1.20;59.40
67557;DHT22;54387;53.526;49.300;2023-03-14T04:22:23;-1.20;59.50
67557;DHT22;54387;53.526;49.300;2023-03-14T04:24:49;-1.20;59.50
67557;DHT22;54387;53.526;49.300;2023-03-14T04:27:15;-1.20;59.60
67557;DHT22;54387;53.526;49.300;2023-03-14T04:29:44;-1.10;59.70
67557;DHT22;54387;53.526;49.300;2023-03-14T04:32:10;-1.10;59.80
67557;DHT22;54387;53.526;49.300;2023-03-14T04:34:36;-1.10;59.90
67557;DHT22;54387;53.526;49.300;2023-03-14T04:37:02;-1.10;59.90
67557;DHT22;54387;53.526;49.300;2023-03-14T04:39:28;-1.10;59.90
67557;DHT22;54387;53.526;49.300;2023-03-14T04:41:54;-1.00;60.00
67557;DHT22;54387;53.526;49.300;2023-03-14T04:44:20;-1.00;60.00
67557;DHT22;54387;53.526;49.300;2023-03-14T04:46:46;-1.00;60.00
67557;DHT22;54387;53.526;49.300;2023-03-14T04:49:12;-1.00;60.00
67557;DHT22;54387;53.526;49.300;2023-03-14T04:51:38;-0.90;60.10
67557;DHT22;54387;53.526;49.300;2023-03-14T04:54:04;-0.90;60.00
67557;DHT22;54387;53.526;49.300;2023-03-14T04:56:30;-0.90;60.00
67557;DHT22;54387;53.526;49.300;2023-03-14T04:58:56;-0.90;59.90
67557;DHT22;54387;53.526;49.300;2023-03-14T05:01:25;-0.90;60.00
67557;DHT22;54387;53.526;49.300;2023-03-14T05:03:51;-0.90;60.00
67557;DHT22;54387;53.526;49.300;2023-03-14T05:06:18;-0.80;60.10
67557;DHT22;54387;53.526;49.300;2023-03-14T05:08:44;-0.70;60.20
67557;DHT22;54387;53.526;49.300;2023-03-14T05:11:10;-0.60;60.20
67557;DHT22;54387;53.526;49.300;2023-03-14T05:13:37;-0.60;60.20
67557;DHT22;54387;53.526;49.300;2023-03-14T05:16:05;-0.50;60.10
67557;DHT22;54387;53.526;49.300;2023-03-14T05:18:31;-0.50;60.10
67557;DHT22;54387;53.526;49.300;2023-03-14T05:20:57;-0.40;60.20
67557;DHT22;54387;53.526;49.300;2023-03-14T05:23:23;-0.40;60.20
67557;DHT22;54387;53.526;49.300;2023-03-14T05:25:49;-0.30;60.00
67557;DHT22;54387;53.526;49.300;2023-03-14T05:28:15;-0.30;60.00
67557;DHT22;54387;53.526;49.300;2023-03-14T05:30:41;-0.30;59.90
67557;DHT22;54387;53.526;49.300;2023-03-14T05:33:07;-0.30;59.70
67557;DHT22;54387;53.526;49.300;2023-03-14T05:35:33;-0.30;59.70
67557;DHT22;54387;53.526;49.300;2023-03-14T05:37:59;-0.30;59.80
67557;DHT22;54387;53.526;49.300;2023-03-14T05:40:25;-0.20;59.80
67557;DHT22;54387;53.526;49.300;2023-03-14T05:42:51;-0.20;60.00
67557;DHT22;54387;53.526;49.300;2023-03-14T05:45:18;-0.10;60.00
67557;DHT22;54387;53.526;49.300;2023-03-14T05:47:44;0.00;60.10
67557;DHT22;54387;53.526;49.300;2023-03-14T05:50:10;0.00;59.90
67557;DHT22;54387;53.526;49.300;2023-03-14T05:52:36;0.00;59.40
67557;DHT22;54387;53.526;49.300;2023-03-14T05:55:02;0.10;60.30
67557;DHT22;54387;53.526;49.300;2023-03-14T05:57:28;0.10;59.60
67557;DHT22;54387;53.526;49.300;2023-03-14T05:59:54;0.20;59.40
67557;DHT22;54387;53.526;49.300;2023-03-14T06:02:20;0.20;58.70
67557;DHT22;54387;53.526;49.300;2023-03-14T06:04:46;0.20;58.50
67557;DHT22;54387;53.526;49.300;2023-03-14T06:07:12;0.30;58.20
67557;DHT22;54387;53.526;49.300;2023-03-14T06:09:38;0.30;58.00
67557;DHT22;54387;53.526;49.300;2023-03-14T06:12:05;0.30;58.00
67557;DHT22;54387;53.526;49.300;2023-03-14T06:14:32;0.40;58.20
67557;DHT22;54387;53.526;49.300;2023-03-14T06:16:58;0.40;57.50
67557;DHT22;54387;53.526;49.300;2023-03-14T06:19:25;0.40;57.40
67557;DHT22;54387;53.526;49.300;2023-03-14T06:21:51;0.50;57.40
67557;DHT22;54387;53.526;49.300;2023-03-14T06:24:18;0.50;57.00
67557;DHT22;54387;53.526;49.300;2023-03-14T06:26:44;0.60;57.10
67557;DHT22;54387;53.526;49.300;2023-03-14T06:29:10;0.70;55.60
67557;DHT22;54387;53.526;49.300;2023-03-14T06:31:36;0.70;56.00
67557;DHT22;54387;53.526;49.300;2023-03-14T06:34:02;0.70;55.80
67557;DHT22;54387;53.526;49.300;2023-03-14T06:36:28;0.80;56.30
67557;DHT22;54387;53.526;49.300;2023-03-14T06:38:54;0.90;55.80
67557;DHT22;54387;53.526;49.300;2023-03-14T06:41:20;0.90;55.90
67557;DHT22;54387;53.526;49.300;2023-03-14T06:43:46;0.90;56.00
67557;DHT22;54387;53.526;49.300;2023-03-14T06:46:12;1.00;55.90
67557;DHT22;54387;53.526;49.300;2023-03-14T06:48:38;1.00;55.30
67557;DHT22;54387;53.526;49.300;2023-03-14T06:51:05;1.00;55.50
67557;DHT22;54387;53.526;49.300;2023-03-14T06:53:32;1.10;55.50
67557;DHT22;54387;53.526;49.300;2023-03-14T06:55:58;1.10;54.30
67557;DHT22;54387;53.526;49.300;2023-03-14T06:58:24;1.10;54.20
67557;DHT22;54387;53.526;49.300;2023-03-14T07:00:52;1.10;54.10
67557;DHT22;54387;53.526;49.300;2023-03-14T07:03:18;1.10;53.80
67557;DHT22;54387;53.526;49.300;2023-03-14T07:05:44;1.10;54.10
67557;DHT22;54387;53.526;49.300;2023-03-14T07:08:10;1.10;54.00
67557;DHT22;54387;53.526;49.300;2023-03-14T07:10:36;1.20;54.20
67557;DHT22;54387;53.526;49.300;2023-03-14T07:13:02;1.20;54.50
67557;DHT22;54387;53.526;49.300;2023-03-14T07:15:28;1.30;55.40
67557;DHT22;54387;53.526;49.300;2023-03-14T07:17:55;1.40;54.30
67557;DHT22;54387;53.526;49.300;2023-03-14T07:20:21;1.50;54.20
67557;DHT22;54387;53.526;49.300;2023-03-14T07:22:47;1.60;54.60
67557;DHT22;54387;53.526;49.300;2023-03-14T07:25:15;1.70;54.60
67557;DHT22;54387;53.526;49.300;2023-03-14T07:27:42;1.80;54.80
67557;DHT22;54387;53.526;49.300;2023-03-14T07:30:09;1.90;54.60
67557;DHT22;54387;53.526;49.300;2023-03-14T07:32:35;1.90;54.60
67557;DHT22;54387;53.526;49.300;2023-03-14T07:35:01;2.00;54.30
67557;DHT22;54387;53.526;49.300;2023-03-14T07:37:27;2.00;53.90
67557;DHT22;54387;53.526;49.300;2023-03-14T07:39:54;2.00;53.80
67557;DHT22;54387;53.526;49.300;2023-03-14T07:42:20;2.10;53.60
67557;DHT22;54387;53.526;49.300;2023-03-14T07:44:46;2.10;53.30
67557;DHT22;54387;53.526;49.300;2023-03-14T07:47:12;2.10;52.50
67557;DHT22;54387;53.526;49.300;2023-03-14T07:49:38;2.00;52.10
67557;DHT22;54387;53.526;49.300;2023-03-14T07:52:05;1.90;52.00
67557;DHT22;54387;53.526;49.300;2023-03-14T07:54:31;1.90;52.00
67557;DHT22;54387;53.526;49.300;2023-03-14T07:56:57;1.90;52.20
67557;DHT22;54387;53.526;49.300;2023-03-14T07:59:26;2.00;52.30
67557;DHT22;54387;53.526;49.300;2023-03-14T08:01:52;2.00;51.70
67557;DHT22;54387;53.526;49.300;2023-03-14T08:04:18;2.00;51.40
67557;DHT22;54387;53.526;49.300;2023-03-14T08:06:44;2.00;51.90
67557;DHT22;54387;53.526;49.300;2023-03-14T08:09:10;2.10;52.10
67557;DHT22;54387;53.526;49.300;2023-03-14T08:11:36;2.20;51.60
67557;DHT22;54387;53.526;49.300;2023-03-14T08:14:02;2.20;51.10
67557;DHT22;54387;53.526;49.300;2023-03-14T08:16:28;2.30;51.20
67557;DHT22;54387;53.526;49.300;2023-03-14T08:18:54;2.30;51.00
67557;DHT22;54387;53.526;49.300;2023-03-14T08:21:21;2.30;50.50
67557;DHT22;54387;53.526;49.300;2023-03-14T08:23:47;2.30;50.10
67557;DHT22;54387;53.526;49.300;2023-03-14T08:26:13;2.20;49.80
67557;DHT22;54387;53.526;49.300;2023-03-14T08:28:39;2.20;49.70
67557;DHT22;54387;53.526;49.300;2023-03-14T08:31:05;2.30;49.70
67557;DHT22;54387;53.526;49.300;2023-03-14T08:33:31;2.30;49.90
67557;DHT22;54387;53.526;49.300;2023-03-14T08:35:58;2.30;49.80
67557;DHT22;54387;53.526;49.300;2023-03-14T08:38:25;2.40;49.70
67557;DHT22;54387;53.526;49.300;2023-03-14T08:41:09;2.40;50.00
67557;DHT22;54387;53.526;49.300;2023-03-14T08:43:35;2.50;50.10
67557;DHT22;54387;53.526;49.300;2023-03-14T08:46:01;2.60;49.80
67557;DHT22;54387;53.526;49.300;2023-03-14T08:48:28;2.60;49.60
67557;DHT22;54387;53.526;49.300;2023-03-14T08:50:56;2.50;49.30
67557;DHT22;54387;53.526;49.300;2023-03-14T08:53:22;2.60;49.80
67557;DHT22;54387;53.526;49.300;2023-03-14T08:55:52;2.60;49.50
67557;DHT22;54387;53.526;49.300;2023-03-14T08:58:19;2.60;49.60
67557;DHT22;54387;53.526;49.300;2023-03-14T09:00:45;2.70;49.80
67557;DHT22;54387;53.526;49.300;2023-03-14T09:03:12;2.80;49.10
67557;DHT22;54387;53.526;49.300;2023-03-14T09:05:39;2.70;48.60
67557;DHT22;54387;53.526;49.300;2023-03-14T09:08:05;2.70;48.80
67557;DHT22;54387;53.526;49.300;2023-03-14T09:10:31;2.80;50.00
67557;DHT22;54387;53.526;49.300;2023-03-14T09:12:57;2.70;48.50
67557;DHT22;54387;53.526;49.300;2023-03-14T09:15:24;2.70;48.80
67557;DHT22;54387;53.526;49.300;2023-03-14T09:17:50;2.70;49.00
67557;DHT22;54387;53.526;49.300;2023-03-14T09:20:17;2.80;49.00
67557;DHT22;54387;53.526;49.300;2023-03-14T09:22:43;2.80;48.90
67557;DHT22;54387;53.526;49.300;2023-03-14T09:25:09;2.80;48.80
67557;DHT22;54387;53.526;49.300;2023-03-14T09:27:36;2.90;49.00
67557;DHT22;54387;53.526;49.300;2023-03-14T09:30:03;2.90;49.30
67557;DHT22;54387;53.526;49.300;2023-03-14T09:32:29;3.00;49.10
67557;DHT22;54387;53.526;49.300;2023-03-14T09:34:57;3.20;50.10
67557;DHT22;54387;53.526;49.300;2023-03-14T09:37:23;3.60;49.70
67557;DHT22;54387;53.526;49.300;2023-03-14T09:39:49;4.10;48.80
67557;DHT22;54387;53.526;49.300;2023-03-14T09:42:16;4.70;48.80
67557;DHT22;54387;53.526;49.300;2023-03-14T09:44:55;5.60;47.60
67557;DHT22;54387;53.526;49.300;2023-03-14T09:47:22;6.60;47.60
67557;DHT22;54387;53.526;49.300;2023-03-14T09:49:49;8.40;44.00
67557;DHT22;54387;53.526;49.300;2023-03-14T09:52:17;10.20;41.60
67557;DHT22;54387;53.526;49.300;2023-03-14T09:54:49;11.90;38.30
67557;DHT22;54387;53.526;49.300;2023-03-14T09:57:19;13.60;36.90
67557;DHT22;54387;53.526;49.300;2023-03-14T09:59:46;14.60;30.80
67557;DHT22;54387;53.526;49.300;2023-03-14T10:02:15;14.80;29.70
67557;DHT22;54387;53.526;49.300;2023-03-14T10:04:41;15.30;31.60
67557;DHT22;54387;53.526;49.300;2023-03-14T10:07:14;16.20;29.60
67557;DHT22;54387;53.526;49.300;2023-03-14T10:09:42;17.10;30.00
67557;DHT22;54387;53.526;49.300;2023-03-14T10:12:08;18.30;30.00
67557;DHT22;54387;53.526;49.300;2023-03-14T10:14:36;19.30;27.50
67557;DHT22;54387;53.526;49.300;2023-03-14T10:17:06;20.10;26.70
67557;DHT22;54387;53.526;49.300;2023-03-14T10:19:33;20.60;24.80
67557;DHT22;54387;53.526;49.300;2023-03-14T10:22:02;21.00;24.40
67557;DHT22;54387;53.526;49.300;2023-03-14T10:24:29;21.40;24.20
67557;DHT22;54387;53.526;49.300;2023-03-14T10:26:58;22.10;24.40
67557;DHT22;54387;53.526;49.300;2023-03-14T10:29:24;23.00;25.00
67557;DHT22;54387;53.526;49.300;2023-03-14T10:34:17;23.70;22.50
67557;DHT22;54387;53.526;49.300;2023-03-14T10:36:43;23.80;21.30
67557;DHT22;54387;53.526;49.300;2023-03-14T10:41:52;22.70;21.90
67557;DHT22;54387;53.526;49.300;2023-03-14T10:44:20;22.90;23.20
67557;DHT22;54387;53.526;49.300;2023-03-14T10:46:47;23.30;22.80
67557;DHT22;54387;53.526;49.300;2023-03-14T10:49:26;23.60;21.30
67557;DHT22;54387;53.526;49.300;2023-03-14T10:51:53;23.10;20.20
67557;DHT22;54387;53.526;49.300;2023-03-14T10:54:20;22.50;21.20
67557;DHT22;54387;53.526;49.300;2023-03-14T10:56:50;22.50;21.50
67557;DHT22;54387;53.526;49.300;2023-03-14T10:59:21;22.80;21.70
67557;DHT22;54387;53.526;49.300;2023-03-14T11:04:14;20.90;21.00
67557;DHT22;54387;53.526;49.300;2023-03-14T11:14:46;17.40;23.50
67557;DHT22;54387;53.526;49.300;2023-03-14T11:17:19;16.90;22.70
67557;DHT22;54387;53.526;49.300;2023-03-14T11:20:04;16.30;23.50
67557;DHT22;54387;53.526;49.300;2023-03-14T11:22:46;15.70;23.30
67557;DHT22;54387;53.526;49.300;2023-03-14T11:30:53;13.20;24.70
67557;DHT22;54387;53.526;49.300;2023-03-14T11:33:21;12.30;24.90
67557;DHT22;54387;53.526;49.300;2023-03-14T11:35:53;11.40;25.50
67557;DHT22;54387;53.526;49.300;2023-03-14T11:40:50;10.00;26.90
67557;DHT22;54387;53.526;49.300;2023-03-14T11:45:42;9.00;28.00
67557;DHT22;54387;53.526;49.300;2023-03-14T11:50:54;8.40;29.60
67557;DHT22;54387;53.526;49.300;2023-03-14T11:53:25;8.10;29.10
67557;DHT22;54387;53.526;49.300;2023-03-14T11:55:52;7.90;29.60
67557;DHT22;54387;53.526;49.300;2023-03-14T12:00:45;7.40;30.30
67557;DHT22;54387;53.526;49.300;2023-03-14T12:03:29;7.20;31.00
67557;DHT22;54387;53.526;49.300;2023-03-14T12:10:58;6.70;32.30
67557;DHT22;54387;53.526;49.300;2023-03-14T12:13:29;6.60;32.60
67557;DHT22;54387;53.526;49.300;2023-03-14T12:15:59;6.50;33.70
67557;DHT22;54387;53.526;49.300;2023-03-14T12:18:43;6.20;34.20
67557;DHT22;54387;53.526;49.300;2023-03-14T12:21:10;6.10;34.80
67557;DHT22;54387;53.526;49.300;2023-03-14T12:23:41;5.80;35.80
67557;DHT22;54387;53.526;49.300;2023-03-14T12:28:37;5.30;36.80
67557;DHT22;54387;53.526;49.300;2023-03-14T12:33:48;4.80;38.80
67557;DHT22;54387;53.526;49.300;2023-03-14T12:36:31;4.60;39.20
67557;DHT22;54387;53.526;49.300;2023-03-14T12:39:05;4.50;39.70
67557;DHT22;54387;53.526;49.300;2023-03-14T12:41:36;4.50;40.30
67557;DHT22;54387;53.526;49.300;2023-03-14T12:46:49;4.30;40.30
67557;DHT22;54387;53.526;49.300;2023-03-14T12:49:15;4.40;40.60
67557;DHT22;54387;53.526;49.300;2023-03-14T12:51:42;4.30;41.00
67557;DHT22;54387;53.526;49.300;2023-03-14T13:01:54;4.00;43.10
67557;DHT22;54387;53.526;49.300;2023-03-14T13:04:26;4.30;43.00
67557;DHT22;54387;53.526;49.300;2023-03-14T13:06:53;5.00;42.40
67557;DHT22;54387;53.526;49.300;2023-03-14T13:12:00;7.00;39.10
67557;DHT22;54387;53.526;49.300;2023-03-14T13:14:27;7.90;37.00
67557;DHT22;54387;53.526;49.300;2023-03-14T13:16:54;8.60;35.60
67557;DHT22;54387;53.526;49.300;2023-03-14T13:19:21;9.10;35.00
67557;DHT22;54387;53.526;49.300;2023-03-14T13:21:49;9.60;34.30
67557;DHT22;54387;53.526;49.300;2023-03-14T13:24:23;9.90;33.70
67557;DHT22;54387;53.526;49.300;2023-03-14T13:26:51;9.90;32.00
67557;DHT22;54387;53.526;49.300;2023-03-14T13:29:25;9.50;32.00
67557;DHT22;54387;53.526;49.300;2023-03-14T13:32:13;9.20;32.60
67557;DHT22;54387;53.526;49.300;2023-03-14T13:34:41;9.00;33.50
67557;DHT22;54387;53.526;49.300;2023-03-14T13:37:17;9.10;33.80
67557;DHT22;54387;53.526;49.300;2023-03-14T13:39:48;9.00;33.00
67557;DHT22;54387;53.526;49.300;2023-03-14T13:42:15;8.70;32.40
67557;DHT22;54387;53.526;49.300;2023-03-14T13:44:44;8.10;32.70
67557;DHT22;54387;53.526;49.300;2023-03-14T13:47:15;7.70;33.60
67557;DHT22;54387;53.526;49.300;2023-03-14T13:49:42;7.40;33.80
67557;DHT22;54387;53.526;49.300;2023-03-14T13:52:24;7.10;34.10
67557;DHT22;54387;53.526;49.300;2023-03-14T13:54:53;6.90;34.50
67557;DHT22;54387;53.526;49.300;2023-03-14T13:57:20;6.90;35.10
67557;DHT22;54387;53.526;49.300;2023-03-14T13:59:57;7.00;35.50
67557;DHT22;54387;53.526;49.300;2023-03-14T14:02:24;7.10;35.70
67557;DHT22;54387;53.526;49.300;2023-03-14T14:04:51;7.10;35.70
67557;DHT22;54387;53.526;49.300;2023-03-14T14:07:17;6.90;36.00
67557;DHT22;54387;53.526;49.300;2023-03-14T14:09:45;6.60;36.40
67557;DHT22;54387;53.526;49.300;2023-03-14T14:12:13;6.40;37.00
67557;DHT22;54387;53.526;49.300;2023-03-14T14:14:52;6.20;37.40
67557;DHT22;54387;53.526;49.300;2023-03-14T14:17:31;6.00;37.70
67557;DHT22;54387;53.526;49.300;2023-03-14T14:19:57;5.90;38.10
67557;DHT22;54387;53.526;49.300;2023-03-14T14:22:24;5.60;38.30
67557;DHT22;54387;53.526;49.300;2023-03-14T14:24:51;5.40;38.50
67557;DHT22;54387;53.526;49.300;2023-03-14T14:27:27;5.20;38.80
67557;DHT22;54387;53.526;49.300;2023-03-14T14:29:58;4.90;39.20
67557;DHT22;54387;53.526;49.300;2023-03-14T14:32:25;4.50;39.50
67557;DHT22;54387;53.526;49.300;2023-03-14T14:39:46;3.70;41.00
67557;DHT22;54387;53.526;49.300;2023-03-14T14:42:14;3.40;41.90
67557;DHT22;54387;53.526;49.300;2023-03-14T14:44:41;3.20;42.10
67557;DHT22;54387;53.526;49.300;2023-03-14T14:47:11;3.00;42.30
67557;DHT22;54387;53.526;49.300;2023-03-14T14:49:37;2.90;42.60
67557;DHT22;54387;53.526;49.300;2023-03-14T14:52:08;2.80;43.10
67557;DHT22;54387;53.526;49.300;2023-03-14T14:54:42;2.70;43.50
67557;DHT22;54387;53.526;49.300;2023-03-14T14:57:18;2.50;44.10
67557;DHT22;54387;53.526;49.300;2023-03-14T14:59:45;2.40;44.10
67557;DHT22;54387;53.526;49.300;2023-03-14T15:02:24;2.30;44.60
67557;DHT22;54387;53.526;49.300;2023-03-14T15:04:53;2.30;45.20
67557;DHT22;54387;53.526;49.300;2023-03-14T15:07:19;2.20;46.50
67557;DHT22;54387;53.526;49.300;2023-03-14T15:09:45;2.10;46.40
67557;DHT22;54387;53.526;49.300;2023-03-14T15:12:11;2.00;46.80
67557;DHT22;54387;53.526;49.300;2023-03-14T15:14:37;2.00;46.80
67557;DHT22;54387;53.526;49.300;2023-03-14T15:17:03;1.90;47.20
67557;DHT22;54387;53.526;49.300;2023-03-14T15:19:29;1.90;47.20
67557;DHT22;54387;53.526;49.300;2023-03-14T15:21:58;1.80;48.30
67557;DHT22;54387;53.526;49.300;2023-03-14T15:24:24;1.80;47.90
67557;DHT22;54387;53.526;49.300;2023-03-14T15:26:50;1.80;48.00
67557;DHT22;54387;53.526;49.300;2023-03-14T15:29:16;1.80;48.30
67557;DHT22;54387;53.526;49.300;2023-03-14T15:31:43;1.80;48.60
67557;DHT22;54387;53.526;49.300;2023-03-14T15:34:09;1.70;49.30
67557;DHT22;54387;53.526;49.300;2023-03-14T15:36:36;1.70;49.30
67557;DHT22;54387;53.526;49.300;2023-03-14T15:39:03;1.70;49.60
67557;DHT22;54387;53.526;49.300;2023-03-14T15:41:29;1.70;49.70
67557;DHT22;54387;53.526;49.300;2023-03-14T15:43:55;1.70;49.40
67557;DHT22;54387;53.526;49.300;2023-03-14T15:46:21;1.70;50.10
67557;DHT22;54387;53.526;49.300;2023-03-14T15:48:48;1.70;50.40
67557;DHT22;54387;53.526;49.300;2023-03-14T15:51:15;1.60;50.50
67557;DHT22;54387;53.526;49.300;2023-03-14T15:53:41;1.60;50.50
67557;DHT22;54387;53.526;49.300;2023-03-14T15:56:14;1.60;51.10
67557;DHT22;54387;53.526;49.300;2023-03-14T15:58:40;1.60;51.30
67557;DHT22;54387;53.526;49.300;2023-03-14T16:01:07;1.60;51.80
67557;DHT22;54387;53.526;49.300;2023-03-14T16:03:36;1.60;52.20
67557;DHT22;54387;53.526;49.300;2023-03-14T16:06:03;1.60;52.70
67557;DHT22;54387;53.526;49.300;2023-03-14T16:08:29;1.60;52.80
67557;DHT22;54387;53.526;49.300;2023-03-14T16:10:57;1.70;53.00
67557;DHT22;54387;53.526;49.300;2023-03-14T16:13:23;1.70;53.50
67557;DHT22;54387;53.526;49.300;2023-03-14T16:15:54;1.70;53.70
67557;DHT22;54387;53.526;49.300;2023-03-14T16:18:20;1.80;53.80
67557;DHT22;54387;53.526;49.300;2023-03-14T16:21:00;1.80;53.90
67557;DHT22;54387;53.526;49.300;2023-03-14T16:23:27;1.90;53.90
67557;DHT22;54387;53.526;49.300;2023-03-14T16:25:54;1.90;53.90
67557;DHT22;54387;53.526;49.300;2023-03-14T16:28:22;1.90;54.00
67557;DHT22;54387;53.526;49.300;2023-03-14T16:30:48;1.80;54.40